sensor_id;sensor_type;location;lat;lon;timestamp;temperature;humidity
46730;DHT22;32476;50.002;11.854;2022-12-18T00:03:55;-9.60;99.90
46730;DHT22;32476;50.002;11.854;2022-12-18T00:06:22;-9.60;99.90
46730;DHT22;32476;50.002;11.854;2022-12-18T00:08:50;-9.70;99.90
46730;DHT22;32476;50.002;11.854;2022-12-18T00:11:20;-9.80;99.90
46730;DHT22;32476;50.002;11.854;2022-12-18T00:13:48;-9.80;99.90
46730;DHT22;32476;50.002;11.854;2022-12-18T00:16:17;-9.90;99.90
46730;DHT22;32476;50.002;11.854;2022-12-18T00:18:48;-9.90;99.90
46730;DHT22;32476;50.002;11.854;2022-12-18T00:21:15;-9.80;99.90
46730;DHT22;32476;50.002;11.854;2022-12-18T00:23:43;-9.60;99.90
46730;DHT22;32476;50.002;11.854;2022-12-18T00:26:13;-9.60;99.90
46730;DHT22;32476;50.002;11.854;2022-12-18T00:28:41;-9.60;99.90
46730;DHT22;32476;50.002;11.854;2022-12-18T00:31:14;-9.50;99.90
46730;DHT22;32476;50.002;11.854;2022-12-18T00:33:45;-9.40;99.90
46730;DHT22;32476;50.002;11.854;2022-12-18T00:36:20;-9.30;99.90
46730;DHT22;32476;50.002;11.854;2022-12-18T00:38:57;-9.30;99.90
46730;DHT22;32476;50.002;11.854;2022-12-18T00:41:24;-9.30;99.90
46730;DHT22;32476;50.002;11.854;2022-12-18T00:44:11;-9.40;99.90
46730;DHT22;32476;50.002;11.854;2022-12-18T00:46:39;-9.50;99.90
46730;DHT22;32476;50.002;11.854;2022-12-18T00:49:06;-9.60;99.90
46730;DHT22;32476;50.002;11.854;2022-12-18T00:51:33;-9.80;99.90
46730;DHT22;32476;50.002;11.854;2022-12-18T00:53:59;-9.90;99.90
46730;DHT22;32476;50.002;11.854;2022-12-18T00:56:26;-9.90;99.90
46730;DHT22;32476;50.002;11.854;2022-12-18T00:58:53;-9.70;99.90
46730;DHT22;32476;50.002;11.854;2022-12-18T01:01:19;-9.70;99.90
46730;DHT22;32476;50.002;11.854;2022-12-18T01:03:45;-9.70;99.90
46730;DHT22;32476;50.002;11.854;2022-12-18T01:06:15;-9.70;99.90
46730;DHT22;32476;50.002;11.854;2022-12-18T01:08:41;-9.80;99.90
46730;DHT22;32476;50.002;11.854;2022-12-18T01:11:15;-9.90;99.90
46730;DHT22;32476;50.002;11.854;2022-12-18T01:13:44;-9.90;99.90
46730;DHT22;32476;50.002;11.854;2022-12-18T01:16:15;-10.00;99.90
46730;DHT22;32476;50.002;11.854;2022-12-18T01:18:41;-9.90;99.90
46730;DHT22;32476;50.002;11.854;2022-12-18T01:21:14;-9.90;99.90
46730;DHT22;32476;50.002;11.854;2022-12-18T01:23:45;-10.20;99.90
46730;DHT22;32476;50.002;11.854;2022-12-18T01:26:15;-10.20;99.90
46730;DHT22;32476;50.002;11.854;2022-12-18T01:28:42;-9.80;99.90
46730;DHT22;32476;50.002;11.854;2022-12-18T01:31:14;-9.80;99.90
46730;DHT22;32476;50.002;11.854;2022-12-18T01:33:44;-9.70;99.90
46730;DHT22;32476;50.002;11.854;2022-12-18T01:36:16;-9.70;99.90
46730;DHT22;32476;50.002;11.854;2022-12-18T01:38:48;-9.70;99.90
46730;DHT22;32476;50.002;11.854;2022-12-18T01:41:17;-9.70;99.90
46730;DHT22;32476;50.002;11.854;2022-12-18T01:43:48;-9.80;99.90
46730;DHT22;32476;50.002;11.854;2022-12-18T01:46:25;-9.90;99.90
46730;DHT22;32476;50.002;11.854;2022-12-18T01:49:00;-10.10;99.90
46730;DHT22;32476;50.002;11.854;2022-12-18T01:51:29;-10.10;99.90
46730;DHT22;32476;50.002;11.854;2022-12-18T01:53:57;-10.10;99.90
46730;DHT22;32476;50.002;11.854;2022-12-18T01:56:24;-10.10;99.90
46730;DHT22;32476;50.002;11.854;2022-12-18T01:59:00;-10.00;99.90
46730;DHT22;32476;50.002;11.854;2022-12-18T02:01:29;-10.10;99.90
46730;DHT22;32476;50.002;11.854;2022-12-18T02:04:21;-10.00;99.90
46730;DHT22;32476;50.002;11.854;2022-12-18T02:07:14;-9.90;99.90
46730;DHT22;32476;50.002;11.854;2022-12-18T02:09:58;-9.80;99.90
46730;DHT22;32476;50.002;11.854;2022-12-18T02:12:40;-9.70;99.90
46730;DHT22;32476;50.002;11.854;2022-12-18T02:15:21;-9.60;99.90
46730;DHT22;32476;50.002;11.854;2022-12-18T02:17:58;-9.60;99.90
46730;DHT22;32476;50.002;11.854;2022-12-18T02:20:54;-9.60;99.90
46730;DHT22;32476;50.002;11.854;2022-12-18T02:28:51;-9.70;99.90
46730;DHT22;32476;50.002;11.854;2022-12-18T02:31:27;-9.80;99.90
46730;DHT22;32476;50.002;11.854;2022-12-18T02:33:56;-9.90;99.90
46730;DHT22;32476;50.002;11.854;2022-12-18T02:36:28;-10.10;99.90
46730;DHT22;32476;50.002;11.854;2022-12-18T02:38:55;-10.30;99.90
46730;DHT22;32476;50.002;11.854;2022-12-18T02:41:22;-10.10;99.90
46730;DHT22;32476;50.002;11.854;2022-12-18T02:43:58;-10.40;99.90
46730;DHT22;32476;50.002;11.854;2022-12-18T02:55:28;-10.50;99.90
46730;DHT22;32476;50.002;11.854;2022-12-18T03:01:19;-10.50;99.90
46730;DHT22;32476;50.002;11.854;2022-12-18T03:04:17;-10.80;99.90
46730;DHT22;32476;50.002;11.854;2022-12-18T03:06:50;-11.00;99.90
46730;DHT22;32476;50.002;11.854;2022-12-18T03:09:39;-10.90;99.90
46730;DHT22;32476;50.002;11.854;2022-12-18T03:12:24;-10.60;99.90
46730;DHT22;32476;50.002;11.854;2022-12-18T03:15:13;-10.20;99.90
46730;DHT22;32476;50.002;11.854;2022-12-18T03:18:05;-10.20;99.90
46730;DHT22;32476;50.002;11.854;2022-12-18T03:20:34;-10.40;99.90
46730;DHT22;32476;50.002;11.854;2022-12-18T03:23:09;-10.40;99.90
46730;DHT22;32476;50.002;11.854;2022-12-18T03:25:40;-10.20;99.90
46730;DHT22;32476;50.002;11.854;2022-12-18T03:28:15;-10.10;99.90
46730;DHT22;32476;50.002;11.854;2022-12-18T03:30:45;-10.00;99.90
46730;DHT22;32476;50.002;11.854;2022-12-18T03:36:18;-10.30;99.90
46730;DHT22;32476;50.002;11.854;2022-12-18T03:38:46;-10.40;99.90
46730;DHT22;32476;50.002;11.854;2022-12-18T03:44:12;-10.60;99.90
46730;DHT22;32476;50.002;11.854;2022-12-18T03:52:36;-10.80;99.90
46730;DHT22;32476;50.002;11.854;2022-12-18T03:55:07;-10.80;99.90
46730;DHT22;32476;50.002;11.854;2022-12-18T03:57:35;-10.80;99.90
46730;DHT22;32476;50.002;11.854;2022-12-18T04:00:07;-11.00;99.90
46730;DHT22;32476;50.002;11.854;2022-12-18T04:02:38;-11.10;99.90
46730;DHT22;32476;50.002;11.854;2022-12-18T04:05:12;-11.00;99.90
46730;DHT22;32476;50.002;11.854;2022-12-18T04:07:41;-11.00;99.90
46730;DHT22;32476;50.002;11.854;2022-12-18T04:10:08;-10.80;99.90
46730;DHT22;32476;50.002;11.854;2022-12-18T04:12:37;-10.70;99.90
46730;DHT22;32476;50.002;11.854;2022-12-18T04:15:05;-10.90;99.90
46730;DHT22;32476;50.002;11.854;2022-12-18T04:17:32;-10.80;99.90
46730;DHT22;32476;50.002;11.854;2022-12-18T04:19:58;-11.00;99.90
46730;DHT22;32476;50.002;11.854;2022-12-18T04:22:25;-11.00;99.90
46730;DHT22;32476;50.002;11.854;2022-12-18T04:24:51;-11.10;99.90
46730;DHT22;32476;50.002;11.854;2022-12-18T04:27:17;-10.90;99.90
46730;DHT22;32476;50.002;11.854;2022-12-18T04:29:44;-10.40;99.90
46730;DHT22;32476;50.002;11.854;2022-12-18T04:32:10;-10.10;99.90
46730;DHT22;32476;50.002;11.854;2022-12-18T04:34:36;-10.00;99.90
46730;DHT22;32476;50.002;11.854;2022-12-18T04:37:04;-9.90;99.90
46730;DHT22;32476;50.002;11.854;2022-12-18T04:39:30;-9.90;99.90
46730;DHT22;32476;50.002;11.854;2022-12-18T04:41:56;-9.90;99.90
46730;DHT22;32476;50.002;11.854;2022-12-18T04:44:23;-9.90;99.90
46730;DHT22;32476;50.002;11.854;2022-12-18T04:46:49;-10.00;99.90
46730;DHT22;32476;50.002;11.854;2022-12-18T04:49:15;-10.10;99.90
46730;DHT22;32476;50.002;11.854;2022-12-18T04:51:42;-10.10;99.90
46730;DHT22;32476;50.002;11.854;2022-12-18T04:54:08;-10.40;99.90
46730;DHT22;32476;50.002;11.854;2022-12-18T04:56:34;-10.50;99.90
46730;DHT22;32476;50.002;11.854;2022-12-18T04:59:01;-10.30;99.90
46730;DHT22;32476;50.002;11.854;2022-12-18T05:01:27;-10.30;99.90
46730;DHT22;32476;50.002;11.854;2022-12-18T05:03:53;-10.50;99.90
46730;DHT22;32476;50.002;11.854;2022-12-18T05:06:21;-10.60;99.90
46730;DHT22;32476;50.002;11.854;2022-12-18T05:08:46;-10.50;99.90
46730;DHT22;32476;50.002;11.854;2022-12-18T05:11:13;-10.70;99.90
46730;DHT22;32476;50.002;11.854;2022-12-18T05:13:45;-10.90;99.90
46730;DHT22;32476;50.002;11.854;2022-12-18T05:16:13;-11.10;99.90
46730;DHT22;32476;50.002;11.854;2022-12-18T05:18:39;-11.00;99.90
46730;DHT22;32476;50.002;11.854;2022-12-18T05:21:07;-11.10;99.90
46730;DHT22;32476;50.002;11.854;2022-12-18T05:23:33;-10.70;99.90
46730;DHT22;32476;50.002;11.854;2022-12-18T05:26:00;-10.50;99.90
46730;DHT22;32476;50.002;11.854;2022-12-18T05:28:31;-10.50;99.90
46730;DHT22;32476;50.002;11.854;2022-12-18T05:30:59;-10.40;99.90
46730;DHT22;32476;50.002;11.854;2022-12-18T05:33:29;-10.50;99.90
46730;DHT22;32476;50.002;11.854;2022-12-18T05:36:00;-10.70;99.90
46730;DHT22;32476;50.002;11.854;2022-12-18T05:38:27;-10.90;99.90
46730;DHT22;32476;50.002;11.854;2022-12-18T05:40:53;-11.00;99.90
46730;DHT22;32476;50.002;11.854;2022-12-18T05:43:22;-11.10;99.90
46730;DHT22;32476;50.002;11.854;2022-12-18T05:45:49;-10.90;99.90
46730;DHT22;32476;50.002;11.854;2022-12-18T05:48:15;-10.80;99.90
46730;DHT22;32476;50.002;11.854;2022-12-18T05:50:45;-10.70;99.90
46730;DHT22;32476;50.002;11.854;2022-12-18T05:53:13;-10.80;99.90
46730;DHT22;32476;50.002;11.854;2022-12-18T05:55:44;-10.80;99.90
46730;DHT22;32476;50.002;11.854;2022-12-18T05:58:11;-10.80;99.90
46730;DHT22;32476;50.002;11.854;2022-12-18T06:00:40;-10.90;99.90
46730;DHT22;32476;50.002;11.854;2022-12-18T06:03:09;-11.00;99.90
46730;DHT22;32476;50.002;11.854;2022-12-18T06:05:42;-11.20;99.90
46730;DHT22;32476;50.002;11.854;2022-12-18T06:08:11;-11.30;99.90
46730;DHT22;32476;50.002;11.854;2022-12-18T06:10:38;-11.40;99.90
46730;DHT22;32476;50.002;11.854;2022-12-18T06:13:05;-11.20;99.90
46730;DHT22;32476;50.002;11.854;2022-12-18T06:15:36;-10.90;99.90
46730;DHT22;32476;50.002;11.854;2022-12-18T06:18:02;-11.10;99.90
46730;DHT22;32476;50.002;11.854;2022-12-18T06:20:28;-11.20;99.90
46730;DHT22;32476;50.002;11.854;2022-12-18T06:22:56;-11.20;99.90
46730;DHT22;32476;50.002;11.854;2022-12-18T06:25:22;-10.90;99.90
46730;DHT22;32476;50.002;11.854;2022-12-18T06:27:48;-10.90;99.90
46730;DHT22;32476;50.002;11.854;2022-12-18T06:30:15;-11.10;99.90
46730;DHT22;32476;50.002;11.854;2022-12-18T06:32:41;-11.30;99.90
46730;DHT22;32476;50.002;11.854;2022-12-18T06:35:07;-10.80;99.90
46730;DHT22;32476;50.002;11.854;2022-12-18T06:37:35;-10.60;99.90
46730;DHT22;32476;50.002;11.854;2022-12-18T06:40:01;-10.70;99.90
46730;DHT22;32476;50.002;11.854;2022-12-18T06:42:28;-10.90;99.90
46730;DHT22;32476;50.002;11.854;2022-12-18T06:44:56;-10.80;99.90
46730;DHT22;32476;50.002;11.854;2022-12-18T06:47:22;-10.90;99.90
46730;DHT22;32476;50.002;11.854;2022-12-18T06:49:48;-11.00;99.90
46730;DHT22;32476;50.002;11.854;2022-12-18T06:52:15;-11.20;99.90
46730;DHT22;32476;50.002;11.854;2022-12-18T06:54:41;-11.10;99.90
46730;DHT22;32476;50.002;11.854;2022-12-18T06:57:07;-11.10;99.90
46730;DHT22;32476;50.002;11.854;2022-12-18T06:59:34;-10.70;99.90
46730;DHT22;32476;50.002;11.854;2022-12-18T07:02:00;-10.50;99.90
46730;DHT22;32476;50.002;11.854;2022-12-18T07:04:30;-10.40;99.90
46730;DHT22;32476;50.002;11.854;2022-12-18T07:06:58;-10.60;99.90
46730;DHT22;32476;50.002;11.854;2022-12-18T07:09:24;-10.80;99.90
46730;DHT22;32476;50.002;11.854;2022-12-18T07:11:50;-10.60;99.90
46730;DHT22;32476;50.002;11.854;2022-12-18T07:14:17;-10.30;99.90
46730;DHT22;32476;50.002;11.854;2022-12-18T07:16:43;-10.30;99.90
46730;DHT22;32476;50.002;11.854;2022-12-18T07:19:09;-10.30;99.90
46730;DHT22;32476;50.002;11.854;2022-12-18T07:21:37;-10.50;99.90
46730;DHT22;32476;50.002;11.854;2022-12-18T07:24:03;-10.60;99.90
46730;DHT22;32476;50.002;11.854;2022-12-18T07:26:29;-10.70;99.90
46730;DHT22;32476;50.002;11.854;2022-12-18T07:28:57;-10.70;99.90
46730;DHT22;32476;50.002;11.854;2022-12-18T07:31:24;-10.60;99.90
46730;DHT22;32476;50.002;11.854;2022-12-18T07:33:51;-10.60;99.90
46730;DHT22;32476;50.002;11.854;2022-12-18T07:36:20;-10.50;99.90
46730;DHT22;32476;50.002;11.854;2022-12-18T07:38:49;-10.50;99.90
46730;DHT22;32476;50.002;11.854;2022-12-18T07:41:16;-10.60;99.90
46730;DHT22;32476;50.002;11.854;2022-12-18T07:43:44;-10.60;99.90
46730;DHT22;32476;50.002;11.854;2022-12-18T07:46:10;-10.70;99.90
46730;DHT22;32476;50.002;11.854;2022-12-18T07:48:39;-10.80;99.90
46730;DHT22;32476;50.002;11.854;2022-12-18T07:51:08;-10.80;99.90
46730;DHT22;32476;50.002;11.854;2022-12-18T07:53:35;-10.80;99.90
46730;DHT22;32476;50.002;11.854;2022-12-18T07:56:04;-10.80;99.90
46730;DHT22;32476;50.002;11.854;2022-12-18T07:58:33;-10.70;99.90
46730;DHT22;32476;50.002;11.854;2022-12-18T08:01:07;-10.60;99.90
46730;DHT22;32476;50.002;11.854;2022-12-18T08:03:36;-10.50;99.90
46730;DHT22;32476;50.002;11.854;2022-12-18T08:06:04;-10.20;99.90
46730;DHT22;32476;50.002;11.854;2022-12-18T08:08:32;-10.00;99.90
46730;DHT22;32476;50.002;11.854;2022-12-18T08:11:01;-9.80;99.90
46730;DHT22;32476;50.002;11.854;2022-12-18T08:13:27;-9.80;99.90
46730;DHT22;32476;50.002;11.854;2022-12-18T08:16:07;-9.60;99.90
46730;DHT22;32476;50.002;11.854;2022-12-18T08:18:36;-9.50;99.90
46730;DHT22;32476;50.002;11.854;2022-12-18T08:21:12;-9.50;99.90
46730;DHT22;32476;50.002;11.854;2022-12-18T08:23:42;-9.50;99.90
46730;DHT22;32476;50.002;11.854;2022-12-18T08:26:08;-9.50;99.90
46730;DHT22;32476;50.002;11.854;2022-12-18T08:28:38;-9.40;99.90
46730;DHT22;32476;50.002;11.854;2022-12-18T08:31:06;-9.30;99.90
46730;DHT22;32476;50.002;11.854;2022-12-18T08:33:33;-9.20;99.90
46730;DHT22;32476;50.002;11.854;2022-12-18T08:36:00;-9.10;99.90
46730;DHT22;32476;50.002;11.854;2022-12-18T08:38:28;-9.00;99.90
46730;DHT22;32476;50.002;11.854;2022-12-18T08:40:59;-9.00;99.90
46730;DHT22;32476;50.002;11.854;2022-12-18T08:43:26;-8.90;99.90
46730;DHT22;32476;50.002;11.854;2022-12-18T08:46:15;-8.80;99.90
46730;DHT22;32476;50.002;11.854;2022-12-18T08:48:41;-8.50;99.90
46730;DHT22;32476;50.002;11.854;2022-12-18T08:51:07;-8.40;99.90
46730;DHT22;32476;50.002;11.854;2022-12-18T08:53:37;-8.40;99.90
46730;DHT22;32476;50.002;11.854;2022-12-18T08:56:04;-8.30;99.90
46730;DHT22;32476;50.002;11.854;2022-12-18T08:58:30;-8.10;99.90
46730;DHT22;32476;50.002;11.854;2022-12-18T09:01:02;-8.00;99.90
46730;DHT22;32476;50.002;11.854;2022-12-18T09:03:30;-7.70;99.90
46730;DHT22;32476;50.002;11.854;2022-12-18T09:05:57;-7.70;99.90
46730;DHT22;32476;50.002;11.854;2022-12-18T09:08:23;-7.50;99.90
46730;DHT22;32476;50.002;11.854;2022-12-18T09:10:50;-7.40;99.90
46730;DHT22;32476;50.002;11.854;2022-12-18T09:13:17;-7.20;99.90
46730;DHT22;32476;50.002;11.854;2022-12-18T09:15:50;-7.20;99.90
46730;DHT22;32476;50.002;11.854;2022-12-18T09:18:20;-7.00;99.90
46730;DHT22;32476;50.002;11.854;2022-12-18T09:20:47;-6.90;99.90
46730;DHT22;32476;50.002;11.854;2022-12-18T09:23:14;-6.80;99.90
46730;DHT22;32476;50.002;11.854;2022-12-18T09:25:42;-6.70;99.90
46730;DHT22;32476;50.002;11.854;2022-12-18T09:28:18;-6.60;99.90
46730;DHT22;32476;50.002;11.854;2022-12-18T09:30:49;-6.60;99.90
46730;DHT22;32476;50.002;11.854;2022-12-18T09:33:16;-6.60;99.90
46730;DHT22;32476;50.002;11.854;2022-12-18T09:35:43;-6.60;99.90
46730;DHT22;32476;50.002;11.854;2022-12-18T09:38:15;-6.50;99.90
46730;DHT22;32476;50.002;11.854;2022-12-18T09:40:51;-6.40;99.90
46730;DHT22;32476;50.002;11.854;2022-12-18T09:43:28;-6.40;99.90
46730;DHT22;32476;50.002;11.854;2022-12-18T09:46:06;-6.30;99.90
46730;DHT22;32476;50.002;11.854;2022-12-18T09:48:40;-6.30;99.90
46730;DHT22;32476;50.002;11.854;2022-12-18T09:51:18;-6.20;99.90
46730;DHT22;32476;50.002;11.854;2022-12-18T09:53:57;-6.10;99.90
46730;DHT22;32476;50.002;11.854;2022-12-18T09:56:28;-6.00;99.90
46730;DHT22;32476;50.002;11.854;2022-12-18T09:59:03;-5.90;99.90
46730;DHT22;32476;50.002;11.854;2022-12-18T10:01:31;-5.90;99.90
46730;DHT22;32476;50.002;11.854;2022-12-18T10:03:57;-5.80;99.90
46730;DHT22;32476;50.002;11.854;2022-12-18T10:06:46;-5.80;99.90
46730;DHT22;32476;50.002;11.854;2022-12-18T10:18:46;-5.30;99.90
46730;DHT22;32476;50.002;11.854;2022-12-18T10:21:45;-5.20;99.90
46730;DHT22;32476;50.002;11.854;2022-12-18T10:25:01;-5.10;99.90
46730;DHT22;32476;50.002;11.854;2022-12-18T10:27:31;-5.00;99.90
46730;DHT22;32476;50.002;11.854;2022-12-18T10:30:00;-5.00;99.90
46730;DHT22;32476;50.002;11.854;2022-12-18T10:32:30;-4.90;99.90
46730;DHT22;32476;50.002;11.854;2022-12-18T10:34:57;-4.80;99.90
46730;DHT22;32476;50.002;11.854;2022-12-18T10:37:27;-4.60;99.90
46730;DHT22;32476;50.002;11.854;2022-12-18T10:40:13;-4.60;99.90
46730;DHT22;32476;50.002;11.854;2022-12-18T10:42:42;-4.60;99.90
46730;DHT22;32476;50.002;11.854;2022-12-18T10:45:15;-4.60;99.90
46730;DHT22;32476;50.002;11.854;2022-12-18T10:47:53;-4.50;99.90
46730;DHT22;32476;50.002;11.854;2022-12-18T10:50:29;-4.40;99.90
46730;DHT22;32476;50.002;11.854;2022-12-18T10:53:00;-4.40;99.90
46730;DHT22;32476;50.002;11.854;2022-12-18T10:55:31;-4.30;99.90
46730;DHT22;32476;50.002;11.854;2022-12-18T10:58:31;-4.20;99.90
46730;DHT22;32476;50.002;11.854;2022-12-18T11:01:15;-4.10;99.90
46730;DHT22;32476;50.002;11.854;2022-12-18T11:03:46;-3.90;99.90
46730;DHT22;32476;50.002;11.854;2022-12-18T11:06:25;-3.90;99.90
46730;DHT22;32476;50.002;11.854;2022-12-18T11:09:19;-3.90;99.90
46730;DHT22;32476;50.002;11.854;2022-12-18T11:11:50;-3.80;99.90
46730;DHT22;32476;50.002;11.854;2022-12-18T11:14:49;-3.80;99.90
46730;DHT22;32476;50.002;11.854;2022-12-18T11:17:31;-3.60;99.90
46730;DHT22;32476;50.002;11.854;2022-12-18T11:20:05;-3.60;99.90
46730;DHT22;32476;50.002;11.854;2022-12-18T11:22:35;-3.40;99.90
46730;DHT22;32476;50.002;11.854;2022-12-18T11:25:18;-3.30;99.90
46730;DHT22;32476;50.002;11.854;2022-12-18T11:27:54;-3.20;99.90
46730;DHT22;32476;50.002;11.854;2022-12-18T11:30:29;-3.10;99.90
46730;DHT22;32476;50.002;11.854;2022-12-18T11:33:16;-3.20;99.90
46730;DHT22;32476;50.002;11.854;2022-12-18T11:35:55;-3.30;99.90
46730;DHT22;32476;50.002;11.854;2022-12-18T11:43:50;-3.10;99.90
46730;DHT22;32476;50.002;11.854;2022-12-18T11:46:27;-3.00;99.90
46730;DHT22;32476;50.002;11.854;2022-12-18T11:49:03;-2.90;99.90
46730;DHT22;32476;50.002;11.854;2022-12-18T11:51:41;-2.70;99.90
46730;DHT22;32476;50.002;11.854;2022-12-18T11:54:15;-2.50;99.90
46730;DHT22;32476;50.002;11.854;2022-12-18T11:56:53;-2.30;99.90
46730;DHT22;32476;50.002;11.854;2022-12-18T11:59:33;-2.20;99.90
46730;DHT22;32476;50.002;11.854;2022-12-18T12:02:33;-2.10;99.90
46730;DHT22;32476;50.002;11.854;2022-12-18T12:05:44;-2.00;99.90
46730;DHT22;32476;50.002;11.854;2022-12-18T12:14:49;-2.00;99.90
46730;DHT22;32476;50.002;11.854;2022-12-18T12:17:47;-1.80;99.90
46730;DHT22;32476;50.002;11.854;2022-12-18T12:26:12;-1.50;99.90
46730;DHT22;32476;50.002;11.854;2022-12-18T12:29:07;-1.70;99.90
46730;DHT22;32476;50.002;11.854;2022-12-18T12:31:53;-2.10;99.90
46730;DHT22;32476;50.002;11.854;2022-12-18T12:37:55;-2.30;99.90
46730;DHT22;32476;50.002;11.854;2022-12-18T12:40:35;-2.20;99.90
46730;DHT22;32476;50.002;11.854;2022-12-18T12:46:09;-2.20;99.90
46730;DHT22;32476;50.002;11.854;2022-12-18T12:51:20;-2.30;99.90
46730;DHT22;32476;50.002;11.854;2022-12-18T12:53:49;-2.40;99.90
46730;DHT22;32476;50.002;11.854;2022-12-18T12:56:19;-2.50;99.90
46730;DHT22;32476;50.002;11.854;2022-12-18T12:59:10;-2.60;99.90
46730;DHT22;32476;50.002;11.854;2022-12-18T13:05:25;-2.80;99.90
46730;DHT22;32476;50.002;11.854;2022-12-18T13:08:04;-2.80;99.90
46730;DHT22;32476;50.002;11.854;2022-12-18T13:10:39;-2.90;99.90
46730;DHT22;32476;50.002;11.854;2022-12-18T13:13:10;-2.80;99.90
46730;DHT22;32476;50.002;11.854;2022-12-18T13:15:46;-2.80;99.90
46730;DHT22;32476;50.002;11.854;2022-12-18T13:18:20;-2.80;99.90
46730;DHT22;32476;50.002;11.854;2022-12-18T13:20:50;-2.90;99.90
46730;DHT22;32476;50.002;11.854;2022-12-18T13:23:33;-2.80;99.90
46730;DHT22;32476;50.002;11.854;2022-12-18T13:34:28;-2.80;99.90
46730;DHT22;32476;50.002;11.854;2022-12-18T13:39:58;-3.00;99.90
46730;DHT22;32476;50.002;11.854;2022-12-18T13:45:35;-3.30;99.90
46730;DHT22;32476;50.002;11.854;2022-12-18T13:48:04;-3.40;99.90
46730;DHT22;32476;50.002;11.854;2022-12-18T13:50:33;-3.40;99.90
46730;DHT22;32476;50.002;11.854;2022-12-18T13:52:59;-3.50;99.90
46730;DHT22;32476;50.002;11.854;2022-12-18T13:55:25;-3.50;99.90
46730;DHT22;32476;50.002;11.854;2022-12-18T13:58:04;-3.60;99.90
46730;DHT22;32476;50.002;11.854;2022-12-18T14:00:31;-3.60;99.90
46730;DHT22;32476;50.002;11.854;2022-12-18T14:02:59;-3.70;99.90
46730;DHT22;32476;50.002;11.854;2022-12-18T14:05:28;-3.80;99.90
46730;DHT22;32476;50.002;11.854;2022-12-18T14:07:59;-3.90;99.90
46730;DHT22;32476;50.002;11.854;2022-12-18T14:10:28;-3.90;99.90
46730;DHT22;32476;50.002;11.854;2022-12-18T14:12:54;-4.00;99.90
46730;DHT22;32476;50.002;11.854;2022-12-18T14:17:59;-4.30;99.90
46730;DHT22;32476;50.002;11.854;2022-12-18T14:20:28;-4.30;99.90
46730;DHT22;32476;50.002;11.854;2022-12-18T14:22:58;-4.50;99.90
46730;DHT22;32476;50.002;11.854;2022-12-18T14:25:30;-4.50;99.90
46730;DHT22;32476;50.002;11.854;2022-12-18T14:30:38;-4.70;99.90
46730;DHT22;32476;50.002;11.854;2022-12-18T14:33:13;-4.80;99.90
46730;DHT22;32476;50.002;11.854;2022-12-18T14:35:56;-4.90;99.90
46730;DHT22;32476;50.002;11.854;2022-12-18T14:38:34;-5.00;99.90
46730;DHT22;32476;50.002;11.854;2022-12-18T14:41:13;-5.10;99.90
46730;DHT22;32476;50.002;11.854;2022-12-18T14:43:44;-5.20;99.90
46730;DHT22;32476;50.002;11.854;2022-12-18T14:52:06;-5.40;99.90
46730;DHT22;32476;50.002;11.854;2022-12-18T14:54:55;-5.50;99.90
46730;DHT22;32476;50.002;11.854;2022-12-18T14:57:23;-5.70;99.90
46730;DHT22;32476;50.002;11.854;2022-12-18T14:59:51;-5.80;99.90
46730;DHT22;32476;50.002;11.854;2022-12-18T15:02:22;-5.80;99.90
46730;DHT22;32476;50.002;11.854;2022-12-18T15:05:49;-5.90;99.90
46730;DHT22;32476;50.002;11.854;2022-12-18T15:07:57;-5.90;99.90
46730;DHT22;32476;50.002;11.854;2022-12-18T15:10:26;-6.10;99.90
46730;DHT22;32476;50.002;11.854;2022-12-18T15:20:41;-6.30;99.90
46730;DHT22;32476;50.002;11.854;2022-12-18T15:25:54;-6.40;99.90
46730;DHT22;32476;50.002;11.854;2022-12-18T15:31:04;-6.50;99.90
46730;DHT22;32476;50.002;11.854;2022-12-18T15:36:20;-6.60;99.90
46730;DHT22;32476;50.002;11.854;2022-12-18T15:38:49;-6.60;99.90
46730;DHT22;32476;50.002;11.854;2022-12-18T15:41:19;-6.70;99.90
46730;DHT22;32476;50.002;11.854;2022-12-18T15:43:48;-6.80;99.90
46730;DHT22;32476;50.002;11.854;2022-12-18T15:46:23;-6.80;99.90
46730;DHT22;32476;50.002;11.854;2022-12-18T15:48:54;-6.80;99.90
46730;DHT22;32476;50.002;11.854;2022-12-18T15:51:33;-6.90;99.90
46730;DHT22;32476;50.002;11.854;2022-12-18T15:54:04;-6.90;99.90
46730;DHT22;32476;50.002;11.854;2022-12-18T15:56:32;-6.90;99.90
46730;DHT22;32476;50.002;11.854;2022-12-18T15:59:20;-7.00;99.90
46730;DHT22;32476;50.002;11.854;2022-12-18T16:01:48;-7.00;99.90
46730;DHT22;32476;50.002;11.854;2022-12-18T16:04:17;-7.00;99.90
46730;DHT22;32476;50.002;11.854;2022-12-18T16:06:50;-7.00;99.90
46730;DHT22;32476;50.002;11.854;2022-12-18T16:09:17;-7.10;99.90
46730;DHT22;32476;50.002;11.854;2022-12-18T16:11:43;-7.10;99.90
46730;DHT22;32476;50.002;11.854;2022-12-18T16:14:25;-7.10;99.90
46730;DHT22;32476;50.002;11.854;2022-12-18T16:16:54;-7.20;99.90
46730;DHT22;32476;50.002;11.854;2022-12-18T16:19:23;-7.20;99.90
46730;DHT22;32476;50.002;11.854;2022-12-18T16:21:51;-7.30;99.90
46730;DHT22;32476;50.002;11.854;2022-12-18T16:24:21;-7.20;99.90
46730;DHT22;32476;50.002;11.854;2022-12-18T16:26:50;-7.20;99.90
46730;DHT22;32476;50.002;11.854;2022-12-18T16:29:18;-7.30;99.90
46730;DHT22;32476;50.002;11.854;2022-12-18T16:31:44;-7.40;99.90
46730;DHT22;32476;50.002;11.854;2022-12-18T16:34:23;-7.40;99.90
46730;DHT22;32476;50.002;11.854;2022-12-18T16:36:57;-7.30;99.90
46730;DHT22;32476;50.002;11.854;2022-12-18T16:39:27;-7.40;99.90
46730;DHT22;32476;50.002;11.854;2022-12-18T16:41:53;-7.40;99.90
46730;DHT22;32476;50.002;11.854;2022-12-18T16:44:19;-7.40;99.90
46730;DHT22;32476;50.002;11.854;2022-12-18T16:46:47;-7.40;99.90
46730;DHT22;32476;50.002;11.854;2022-12-18T16:49:15;-7.40;99.90
46730;DHT22;32476;50.002;11.854;2022-12-18T16:51:41;-7.50;99.90
46730;DHT22;32476;50.002;11.854;2022-12-18T16:54:09;-7.50;99.90
46730;DHT22;32476;50.002;11.854;2022-12-18T16:56:35;-7.50;99.90
46730;DHT22;32476;50.002;11.854;2022-12-18T16:59:02;-7.60;99.90
46730;DHT22;32476;50.002;11.854;2022-12-18T17:01:31;-7.60;99.90
46730;DHT22;32476;50.002;11.854;2022-12-18T17:04:00;-7.60;99.90
46730;DHT22;32476;50.002;11.854;2022-12-18T17:06:29;-7.60;99.90
46730;DHT22;32476;50.002;11.854;2022-12-18T17:09:03;-7.60;99.90
46730;DHT22;32476;50.002;11.854;2022-12-18T17:11:33;-7.70;99.90
46730;DHT22;32476;50.002;11.854;2022-12-18T17:14:14;-7.70;99.90
46730;DHT22;32476;50.002;11.854;2022-12-18T17:16:42;-7.70;99.90
46730;DHT22;32476;50.002;11.854;2022-12-18T17:19:10;-7.70;99.90
46730;DHT22;32476;50.002;11.854;2022-12-18T17:21:36;-7.70;99.90
46730;DHT22;32476;50.002;11.854;2022-12-18T17:24:02;-7.70;99.90
46730;DHT22;32476;50.002;11.854;2022-12-18T17:26:29;-7.70;99.90
46730;DHT22;32476;50.002;11.854;2022-12-18T17:28:56;-7.80;99.90
46730;DHT22;32476;50.002;11.854;2022-12-18T17:31:25;-7.80;99.90